Time;durP1;ratioP1;P1;durP2;ratioP2;P2;SDS_P1;SDS_P2;PMS_P1;PMS_P2;Temp;Humidity;BMP_temperature;BMP_pressure;BME280_temperature;BME280_humidity;BME280_pressure;Samples;Min_cycle;Max_cycle;Signal;HPM_P1;HPM_P2
2024/04/11 00:02:11;;;;;;;5.97;4.60;;;6.00;99.90;;;6.70;85.54;99436.97;11110982;26;20298;-64
2024/04/11 00:07:19;;;;;;;6.93;4.87;;;6.00;99.90;;;6.65;85.58;99427.09;11119399;26;20272;-63
2024/04/11 00:12:25;;;;;;;6.17;4.40;;;6.00;99.90;;;6.67;86.49;99431.59;11122457;26;20755;-63
2024/04/11 00:17:31;;;;;;;4.80;4.40;;;6.00;99.90;;;6.66;85.27;99424.69;11122028;26;20264;-63
2024/04/11 00:22:39;;;;;;;5.70;4.00;;;5.90;99.90;;;6.53;84.50;99417.53;11114263;26;20661;-63
2024/04/11 00:27:45;;;;;;;4.37;3.97;;;5.70;99.90;;;6.37;85.78;99410.78;11118939;26;20252;-63
2024/04/11 00:32:51;;;;;;;5.53;4.50;;;5.50;99.90;;;6.24;86.34;99421.41;11112069;26;20351;-64
2024/04/11 00:38:01;;;;;;;6.80;4.53;;;5.50;99.90;;;6.17;87.17;99406.28;11117928;26;21050;-65
2024/04/11 00:43:11;;;;;;;4.83;4.20;;;5.30;99.90;;;6.16;87.35;99395.25;11118484;26;20340;-64
2024/04/11 00:48:17;;;;;;;4.90;4.40;;;5.40;99.90;;;5.95;87.13;99388.94;11119378;26;20255;-63
2024/04/11 00:53:26;;;;;;;5.63;4.40;;;5.20;99.90;;;5.81;88.25;99395.13;11114345;26;20804;-64
2024/04/11 00:58:32;;;;;;;5.53;5.03;;;5.10;99.90;;;5.82;88.16;99393.50;11122203;26;20313;-62
2024/04/11 01:03:38;;;;;;;5.20;4.70;;;5.20;99.90;;;5.92;88.30;99392.75;11113008;21;21001;-64
2024/04/11 01:08:47;;;;;;;6.57;5.10;;;5.20;99.90;;;6.01;87.86;99386.09;11047068;26;20701;-64
2024/04/11 01:13:55;;;;;;;4.90;4.57;;;5.30;99.90;;;6.01;88.03;99370.88;11045575;26;20255;-63
2024/04/11 01:19:01;;;;;;;4.40;4.00;;;5.30;99.90;;;6.02;88.16;99377.75;11044711;26;20263;-63
2024/04/11 01:24:13;;;;;;;5.03;4.10;;;5.30;99.90;;;6.01;87.68;99386.09;11042662;26;20251;-63
2024/04/11 01:29:19;;;;;;;5.50;4.30;;;5.30;99.90;;;6.02;87.39;99382.81;11044918;26;20294;-63
2024/04/11 01:34:24;;;;;;;5.87;4.30;;;5.20;99.90;;;5.92;87.40;99380.97;11044926;26;20305;-63
2024/04/11 01:39:33;;;;;;;4.17;3.77;;;5.10;99.90;;;5.78;87.37;99382.16;11060680;26;20312;-66
2024/04/11 01:44:39;;;;;;;5.10;4.13;;;5.00;99.90;;;5.76;88.08;99378.56;11057224;26;20290;-65
2024/04/11 01:49:44;;;;;;;3.90;3.63;;;5.00;99.90;;;5.71;87.91;99383.91;11040369;26;20379;-65
2024/04/11 01:54:54;;;;;;;5.50;4.03;;;4.90;99.90;;;5.68;87.20;99381.06;11046840;26;20255;-66
2024/04/11 02:00:00;;;;;;;5.33;4.40;;;4.80;99.90;;;5.52;87.46;99376.06;11051240;26;20253;-66
2024/04/11 02:05:07;;;;;;;5.13;4.37;;;4.70;99.90;;;5.38;88.79;99373.06;11050030;26;20629;-62
2024/04/11 02:10:18;;;;;;;4.70;4.30;;;4.70;99.90;;;5.24;89.05;99378.38;11044081;26;20253;-63
2024/04/11 02:15:23;;;;;;;5.37;4.97;;;4.50;99.90;;;5.14;90.50;99375.63;11046162;26;20316;-63
2024/04/11 02:20:32;;;;;;;5.47;4.57;;;4.50;99.90;;;5.02;90.79;99384.50;11050604;26;20307;-65
2024/04/11 02:25:41;;;;;;;6.17;4.63;;;4.40;99.90;;;5.16;91.17;99387.72;11052114;26;20758;-65
2024/04/11 02:30:47;;;;;;;5.63;4.60;;;4.50;99.90;;;5.28;90.28;99380.47;11049435;26;20354;-64
2024/04/11 02:35:52;;;;;;;5.30;4.80;;;4.60;99.90;;;5.31;89.73;99395.09;11047552;26;20761;-66
2024/04/11 02:41:00;;;;;;;5.30;4.83;;;4.50;99.90;;;5.20;89.41;99389.81;11050648;26;20258;-65
2024/04/11 02:46:09;;;;;;;5.23;4.73;;;4.50;99.90;;;5.22;89.28;99396.69;11052014;26;20488;-65
2024/04/11 02:51:15;;;;;;;5.80;5.30;;;4.40;99.90;;;5.13;89.89;99389.03;11049573;26;20782;-66
2024/04/11 02:56:26;;;;;;;5.80;4.73;;;4.30;99.90;;;5.01;89.69;99408.03;11050240;26;20270;-64
2024/04/11 03:01:32;;;;;;;4.53;4.13;;;4.20;99.90;;;5.01;89.57;99410.56;11046871;26;20253;-63
2024/04/11 03:06:38;;;;;;;5.40;4.90;;;4.10;99.90;;;4.96;90.44;99416.06;11048010;26;20253;-63
2024/04/11 03:11:46;;;;;;;6.63;4.83;;;4.20;99.90;;;4.91;90.70;99422.28;11038176;26;20296;-64
2024/04/11 03:16:54;;;;;;;4.80;4.40;;;4.10;99.90;;;4.88;89.76;99416.91;11041776;26;20308;-64
2024/04/11 03:22:00;;;;;;;5.27;4.77;;;4.10;99.90;;;4.86;89.97;99425.06;11045846;26;22663;-63
2024/04/11 03:27:10;;;;;;;4.60;4.30;;;4.10;99.90;;;4.81;90.08;99429.69;11051373;26;20870;-62
2024/04/11 03:32:16;;;;;;;4.90;4.40;;;4.00;99.90;;;4.66;90.66;99435.66;11049918;26;20248;-63
2024/04/11 03:37:21;;;;;;;5.20;4.70;;;3.80;99.90;;;4.51;90.54;99430.75;11045425;26;20752;-63
2024/04/11 03:42:30;;;;;;;6.57;4.90;;;3.70;99.90;;;4.52;91.42;99434.19;11041103;26;20812;-62
2024/04/11 03:47:37;;;;;;;5.67;4.73;;;3.70;99.90;;;4.43;91.30;99430.69;11049116;26;20267;-63
2024/04/11 03:52:43;;;;;;;5.00;4.60;;;3.60;99.90;;;4.48;90.71;99432.97;11047557;26;21665;-63
2024/04/11 03:57:51;;;;;;;6.77;4.90;;;3.70;99.90;;;4.40;91.34;99443.03;11037339;26;20758;-62
2024/04/11 04:02:57;;;;;;;5.10;4.60;;;3.60;99.90;;;4.37;91.14;99448.66;11020396;26;20258;-64
2024/04/11 04:08:04;;;;;;;4.57;4.17;;;3.60;99.90;;;4.44;91.73;99447.69;11039362;26;20333;-64
2024/04/11 04:13:13;;;;;;;5.40;4.80;;;3.60;99.90;;;4.48;91.07;99453.22;11031691;26;20617;-63
2024/04/11 04:18:19;;;;;;;5.27;4.87;;;3.70;99.90;;;4.38;90.97;99445.41;11018044;26;20859;-63
2024/04/11 04:23:26;;;;;;;5.40;4.90;;;3.60;99.90;;;4.28;91.71;99448.56;11022557;26;20287;-63
2024/04/11 04:28:35;;;;;;;5.27;4.77;;;3.50;99.90;;;4.29;91.01;99455.44;11024205;26;20291;-65
2024/04/11 04:33:41;;;;;;;5.67;5.17;;;3.50;99.90;;;4.30;91.26;99463.94;11016432;26;20525;-64
2024/04/11 04:38:49;;;;;;;7.03;5.53;;;3.50;99.90;;;4.33;91.77;99453.25;11004490;26;20826;-65
2024/04/11 04:44:00;;;;;;;5.73;5.20;;;3.60;99.90;;;4.32;92.83;99459.94;11016991;26;20926;-65
2024/04/11 04:49:09;;;;;;;5.27;4.87;;;3.60;99.90;;;4.29;91.73;99469.72;11011095;26;20316;-66
2024/04/11 04:54:16;;;;;;;6.00;5.40;;;3.50;99.90;;;4.27;91.92;99481.31;11016119;26;20610;-61
2024/04/11 04:59:25;;;;;;;5.30;4.90;;;3.50;99.90;;;4.38;91.85;99482.44;11005897;26;20302;-61
2024/04/11 05:04:32;;;;;;;5.80;5.40;;;3.60;99.90;;;4.33;91.65;99487.03;11010124;26;20681;-64
2024/04/11 05:09:38;;;;;;;5.17;4.77;;;3.60;99.90;;;4.43;92.43;99489.81;11052208;26;21256;-62
2024/04/11 05:14:46;;;;;;;5.60;5.10;;;3.70;99.90;;;4.65;92.11;99497.16;11022061;26;20282;-64
2024/04/11 05:19:53;;;;;;;5.33;4.83;;;3.90;99.90;;;4.68;90.72;99500.03;11021671;26;20298;-63
2024/04/11 05:24:59;;;;;;;6.63;6.03;;;4.00;99.90;;;4.87;90.91;99515.56;11019741;26;20321;-65
2024/04/11 05:30:11;;;;;;;5.37;4.97;;;4.10;99.90;;;5.29;89.17;99514.06;11021377;26;20253;-64
2024/04/11 05:35:23;;;;;;;6.77;6.17;;;4.50;99.90;;;5.56;87.76;99525.28;11023495;26;20649;-62
2024/04/11 05:40:32;;;;;;;6.50;5.43;;;4.70;99.90;;;5.96;85.10;99516.72;11024909;26;20260;-66
2024/04/11 05:45:41;;;;;;;12.10;10.33;;;4.90;99.90;;;6.44;83.90;99513.16;11026600;26;20801;-64
2024/04/11 05:50:47;;;;;;;5.63;5.10;;;5.30;99.90;;;6.95;81.42;99515.56;11024224;26;20256;-65
2024/04/11 05:55:56;;;;;;;5.63;4.70;;;5.70;99.90;;;7.32;79.58;99514.94;11027103;26;20299;-63
2024/04/11 06:01:05;;;;;;;5.20;4.80;;;6.00;99.90;;;8.16;75.01;99518.63;11021622;26;20252;-64
2024/04/11 06:06:13;;;;;;;4.90;4.40;;;7.00;99.90;;;8.77;72.79;99509.00;11019140;26;20263;-65
2024/04/11 06:11:19;;;;;;;4.87;4.43;;;7.70;99.90;;;9.02;71.96;99515.53;11032776;26;20311;-64
2024/04/11 06:16:28;;;;;;;5.60;5.00;;;7.60;99.90;;;9.00;70.40;99518.72;11014896;26;20272;-65
2024/04/11 06:21:36;;;;;;;5.37;4.87;;;7.40;99.90;;;9.96;68.68;99521.22;11026459;26;20299;-64
2024/04/11 06:26:42;;;;;;;4.70;4.30;;;8.10;99.90;;;10.19;68.37;99515.53;11028578;26;20300;-65
2024/04/11 06:31:50;;;;;;;5.13;4.27;;;8.60;99.90;;;10.96;63.83;99514.28;11036228;26;20757;-66
2024/04/11 06:36:56;;;;;;;8.32;5.05;;;9.20;99.90;;;11.14;63.38;99530.28;11029740;26;20627;-64
2024/04/11 06:42:02;;;;;;;5.72;5.20;;;9.30;99.90;;;11.41;63.85;99529.94;11038482;26;20300;-65
2024/04/11 06:47:11;;;;;;;5.75;5.25;;;9.80;99.90;;;11.56;62.99;99526.81;11017757;26;20291;-65
2024/04/11 06:52:32;;;;;;;7.25;4.35;;;10.10;99.90;;;12.43;59.54;99522.56;11011561;26;20374;-65
2024/04/11 06:57:40;;;;;;;6.30;4.88;;;10.90;99.90;;;12.83;58.25;99523.91;11017896;26;20935;-64
2024/04/11 07:02:49;;;;;;;5.63;5.22;;;11.20;99.90;;;13.15;57.87;99530.53;11024399;26;20302;-63
2024/04/11 07:07:59;;;;;;;7.45;5.35;;;11.60;99.90;;;12.99;58.33;99526.84;11024802;26;20341;-63
2024/04/11 07:13:05;;;;;;;5.50;4.95;;;11.50;99.90;;;13.81;54.39;99533.69;11019986;26;20704;-63
2024/04/11 07:18:14;;;;;;;7.90;4.82;;;11.70;99.90;;;14.58;52.66;99531.34;11008622;26;20798;-67
2024/04/11 07:23:22;;;;;;;6.45;4.63;;;12.50;99.90;;;15.36;50.80;99533.97;11033765;26;20713;-65
2024/04/11 07:28:31;;;;;;;7.15;4.88;;;13.00;99.90;;;15.67;48.23;99526.53;11015806;26;20265;-64
2024/04/11 07:33:39;;;;;;;5.43;4.53;;;13.10;97.80;;;15.30;49.99;99531.88;11019714;26;20391;-64
2024/04/11 07:38:47;;;;;;;7.03;4.82;;;13.20;98.60;;;15.55;49.33;99524.06;11023857;26;20265;-66
2024/04/11 07:43:55;;;;;;;6.07;4.75;;;13.70;97.50;;;15.65;50.39;99532.38;11008053;26;20255;-65
2024/04/11 07:49:07;;;;;;;6.05;4.35;;;13.90;97.60;;;15.00;50.66;99532.47;11013768;26;20657;-64
2024/04/11 07:54:15;;;;;;;4.65;4.07;;;13.60;96.90;;;15.61;50.13;99536.47;11011031;26;20312;-64
2024/04/11 07:59:37;;;;;;;4.55;3.80;;;14.40;96.10;;;16.23;48.04;99535.22;11021533;26;20245;-64
2024/04/11 08:04:45;;;;;;;5.75;4.03;;;15.10;94.30;;;16.30;49.05;99543.41;11013569;26;20248;-62
2024/04/11 08:09:55;;;;;;;4.57;4.05;;;15.10;95.20;;;15.99;49.94;99531.22;11041119;26;20255;-63
2024/04/11 08:15:02;;;;;;;6.88;3.88;;;15.10;95.50;;;16.95;48.57;99532.72;11047087;26;20272;-64
2024/04/11 08:20:14;;;;;;;4.47;3.78;;;16.00;93.70;;;17.51;46.83;99527.38;11018374;26;20298;-62
2024/04/11 08:25:20;;;;;;;4.20;3.38;;;16.50;92.10;;;18.05;43.28;99532.06;11019809;26;20252;-62
2024/04/11 08:30:26;;;;;;;4.80;3.95;;;17.10;86.00;;;17.92;43.90;99533.09;11012130;26;20299;-64
2024/04/11 08:35:35;;;;;;;5.22;3.70;;;16.70;89.00;;;18.14;43.24;99532.53;11016788;26;20299;-66
2024/04/11 08:40:45;;;;;;;3.95;3.10;;;17.30;86.20;;;18.58;42.14;99528.88;11010023;26;20883;-63
2024/04/11 08:45:50;;;;;;;4.13;2.83;;;17.80;81.60;;;18.32;41.55;99523.19;11031323;26;20260;-63
2024/04/11 08:51:04;;;;;;;6.18;3.30;;;17.20;82.20;;;18.69;40.47;99531.19;11024800;26;20250;-63
2024/04/11 08:56:14;;;;;;;5.82;3.25;;;17.70;79.10;;;18.23;41.13;99518.41;11012161;26;20260;-63
2024/04/11 09:01:23;;;;;;;5.82;3.30;;;17.30;81.30;;;18.01;42.93;99524.13;11008924;26;21167;-63
2024/04/11 09:06:31;;;;;;;3.35;2.40;;;17.20;83.70;;;18.73;38.54;99527.06;11009998;26;20260;-63
2024/04/11 09:11:37;;;;;;;4.82;2.38;;;18.00;74.90;;;19.01;38.31;99525.91;11028830;26;20306;-63
2024/04/11 09:16:43;;;;;;;3.83;2.70;;;18.40;74.00;;;18.78;39.72;99529.94;11039443;26;20271;-64
2024/04/11 09:21:53;;;;;;;2.97;2.05;;;18.30;75.10;;;18.43;37.68;99524.66;11048617;26;20694;-64
2024/04/11 09:26:59;;;;;;;4.35;1.92;;;17.80;71.80;;;19.20;36.10;99525.13;11049710;26;20261;-62
2024/04/11 09:32:07;;;;;;;4.03;2.67;;;18.40;69.70;;;19.19;36.79;99529.41;11044730;26;20843;-62
2024/04/11 09:37:23;;;;;;;2.65;2.13;;;18.50;69.50;;;19.46;34.35;99529.00;11055197;26;20605;-63
2024/04/11 09:42:33;;;;;;;2.58;2.10;;;18.80;65.50;;;19.53;36.22;99526.78;11040117;26;20268;-63
2024/04/11 09:47:44;;;;;;;3.45;2.10;;;19.00;68.40;;;19.56;34.38;99531.22;11048358;26;20312;-64
2024/04/11 09:52:53;;;;;;;3.00;2.40;;;19.00;65.40;;;19.27;36.29;99537.59;11027323;26;20264;-63
2024/04/11 09:57:59;;;;;;;2.85;2.10;;;18.40;68.90;;;19.44;35.26;99535.84;11047627;26;20807;-65
2024/04/11 10:03:05;;;;;;;4.18;2.05;;;18.80;66.60;;;19.31;36.36;99524.84;11050629;26;20993;-63
2024/04/11 10:08:27;;;;;;;2.53;2.00;;;18.70;67.90;;;18.82;36.71;99530.16;11028449;26;22004;-65
2024/04/11 10:13:40;;;;;;;4.72;2.30;;;18.20;68.90;;;18.92;36.51;99525.47;11015354;26;20300;-65
2024/04/11 10:18:51;;;;;;;4.65;2.30;;;18.40;69.30;;;19.01;36.13;99523.31;11022386;26;20756;-65
2024/04/11 10:24:03;;;;;;;2.63;2.08;;;18.40;68.10;;;19.01;37.40;99532.00;11017168;26;20386;-65
2024/04/11 10:29:18;;;;;;;5.20;2.70;;;18.30;69.80;;;18.97;37.13;99529.16;11035219;26;20261;-65
2024/04/11 10:34:25;;;;;;;5.22;3.70;;;18.50;69.40;;;18.89;37.77;99529.66;11044824;26;20260;-64
2024/04/11 10:39:35;;;;;;;3.42;2.45;;;18.40;70.30;;;19.26;35.79;99534.13;11027615;26;20788;-64
2024/04/11 10:44:42;;;;;;;2.38;2.00;;;18.80;67.10;;;19.37;36.20;99529.44;11009561;26;20399;-65
2024/04/11 10:49:51;;;;;;;3.42;2.38;;;18.60;69.00;;;19.69;35.68;99528.47;11018711;26;20261;-65
2024/04/11 10:55:12;;;;;;;2.67;2.00;;;19.10;67.50;;;20.00;35.81;99528.19;11027985;26;20257;-66
2024/04/11 11:00:38;;;;;;;2.13;1.92;;;19.30;67.30;;;19.98;35.11;99523.75;11020783;26;20610;-64
2024/04/11 11:05:45;;;;;;;3.28;2.40;;;19.40;65.70;;;20.00;34.29;99530.78;11009704;26;20595;-62
2024/04/11 11:10:53;;;;;;;2.40;2.20;;;19.20;64.80;;;19.63;34.78;99525.53;11025475;26;20291;-63
2024/04/11 11:15:59;;;;;;;3.40;1.88;;;18.80;65.60;;;19.62;36.08;99505.59;11009135;26;20260;-64
2024/04/11 11:21:07;;;;;;;2.63;1.70;;;18.90;67.30;;;19.62;35.04;99515.97;11020997;26;20865;-63
2024/04/11 11:26:22;;;;;;;2.85;1.77;;;19.00;65.10;;;19.40;35.23;99505.34;11025161;26;20266;-63
2024/04/11 11:31:31;;;;;;;2.97;1.88;;;18.70;65.80;;;19.07;36.18;99500.31;11021147;26;20306;-64
2024/04/11 11:36:37;;;;;;;3.35;2.63;;;18.50;66.90;;;19.23;35.79;99500.25;11026146;26;20321;-64
2024/04/11 11:41:47;;;;;;;4.85;2.40;;;18.70;67.70;;;19.38;35.56;99494.03;11022599;26;20257;-63
2024/04/11 11:47:06;;;;;;;2.63;1.80;;;18.50;67.00;;;19.33;36.02;99486.91;11013859;26;20764;-63
2024/04/11 11:52:14;;;;;;;2.50;2.30;;;18.60;67.70;;;19.21;36.89;99475.94;11016878;26;20398;-63
2024/04/11 11:57:22;;;;;;;2.35;2.10;;;18.60;68.70;;;19.45;36.57;99475.34;11012306;26;20328;-64
2024/04/11 12:02:28;;;;;;;2.83;1.90;;;18.70;68.50;;;19.54;36.47;99470.59;11018561;26;20273;-63
2024/04/11 12:07:34;;;;;;;2.60;1.80;;;18.80;68.20;;;19.46;35.46;99466.75;11015235;26;20296;-65
2024/04/11 12:12:43;;;;;;;2.08;1.70;;;18.80;66.80;;;19.32;35.69;99467.00;11025749;26;20303;-64
2024/04/11 12:17:59;;;;;;;3.53;2.13;;;18.50;66.90;;;19.38;35.17;99461.22;11023594;26;20267;-64
2024/04/11 12:23:06;;;;;;;2.50;1.70;;;18.70;66.70;;;19.29;36.49;99459.06;11030735;26;20298;-65
2024/04/11 12:28:19;;;;;;;2.85;1.98;;;18.60;67.40;;;19.33;35.12;99442.81;11018071;26;20257;-63
2024/04/11 12:33:27;;;;;;;2.33;1.70;;;18.60;66.50;;;19.18;35.85;99444.69;11035143;26;20272;-64
2024/04/11 12:38:33;;;;;;;2.85;1.63;;;18.30;66.20;;;19.12;35.95;99449.59;11006866;26;20354;-63
2024/04/11 12:43:44;;;;;;;3.08;1.90;;;18.40;66.70;;;19.23;36.13;99432.84;11020325;26;20667;-63
2024/04/11 12:48:50;;;;;;;2.60;2.25;;;18.40;66.70;;;19.06;37.31;99439.81;11014628;26;20339;-64
2024/04/11 12:53:56;;;;;;;2.95;1.60;;;18.40;68.60;;;19.09;36.39;99421.81;11017622;26;20297;-63
2024/04/11 12:59:05;;;;;;;3.85;2.15;;;18.30;67.10;;;18.84;37.02;99422.31;11019722;26;20252;-63
2024/04/11 13:04:23;;;;;;;3.83;1.88;;;18.20;68.70;;;18.96;36.24;99431.50;11017962;26;20253;-63
2024/04/11 13:09:35;;;;;;;2.88;1.80;;;18.10;67.20;;;18.97;36.26;99418.63;11005905;26;20307;-64
2024/04/11 13:14:55;;;;;;;3.05;1.80;;;18.10;67.10;;;19.32;36.49;99411.66;11031066;26;20283;-65
2024/04/11 13:20:11;;;;;;;3.38;1.70;;;18.60;67.60;;;19.34;34.82;99416.09;11010631;26;20307;-63
2024/04/11 13:25:20;;;;;;;3.55;1.80;;;18.80;64.70;;;19.15;36.66;99407.38;11011235;26;20256;-63
2024/04/11 13:30:31;;;;;;;3.03;1.55;;;18.40;67.50;;;19.13;36.39;99405.56;11017436;26;20324;-64
2024/04/11 13:35:48;;;;;;;2.22;1.40;;;18.50;67.20;;;19.13;36.32;99402.09;11041511;26;20252;-63
2024/04/11 13:41:15;;;;;;;2.92;2.00;;;18.40;68.00;;;19.41;36.33;99396.53;11017490;26;20642;-63
2024/04/11 13:46:33;;;;;;;28.92;4.13;;;18.70;67.00;;;19.45;37.02;99403.63;11026609;26;20252;-64
2024/04/11 13:51:44;;;;;;;22.88;5.90;;;18.80;69.10;;;19.51;36.15;99395.25;11019288;26;21007;-66
2024/04/11 13:56:59;;;;;;;2.50;1.88;;;18.80;67.60;;;19.65;36.75;99386.41;11018099;26;20267;-60
2024/04/11 14:02:30;;;;;;;3.92;1.95;;;19.00;67.20;;;19.28;37.00;99374.31;11020477;26;20252;-66
2024/04/11 14:07:36;;;;;;;4.57;2.28;;;18.60;68.00;;;19.61;36.51;99368.91;11039454;26;20723;-62
2024/04/11 14:12:41;;;;;;;4.30;1.92;;;18.80;69.10;;;19.59;36.73;99360.16;11033234;26;20271;-62
2024/04/11 14:17:55;;;;;;;8.60;2.38;;;18.80;67.90;;;19.55;37.48;99359.16;11028112;26;20312;-63
2024/04/11 14:28:24;;;;;;;9.52;2.55;;;18.50;70.10;;;19.47;37.33;99342.34;11031703;26;20596;-62
2024/04/11 14:34:19;;;;;;;3.75;1.80;;;18.60;68.80;;;19.45;37.49;99346.56;11049125;26;20256;-63
2024/04/11 14:39:08;;;;;;;2.35;1.70;;;18.50;69.70;;;19.27;38.50;99345.72;11023069;26;20291;-64
2024/04/11 14:44:18;;;;;;;2.97;1.67;;;18.50;71.80;;;19.38;36.48;99341.03;11020656;26;21051;-61
2024/04/11 14:49:27;;;;;;;2.97;1.75;;;18.50;68.30;;;19.45;37.07;99335.31;11031185;26;20627;-60
2024/04/11 14:54:35;;;;;;;2.25;1.67;;;18.50;69.70;;;19.42;36.72;99332.56;11019622;26;20300;-63
2024/04/11 14:59:42;;;;;;;5.55;1.73;;;18.60;69.60;;;19.27;37.67;99336.22;11032831;26;20256;-63
2024/04/11 15:04:51;;;;;;;2.60;1.40;;;18.50;68.70;;;19.06;38.91;99336.13;11016005;26;20253;-62
2024/04/11 15:09:59;;;;;;;1.60;1.50;;;18.20;72.00;;;19.04;38.88;99332.56;11028984;26;20256;-62
2024/04/11 15:15:12;;;;;;;3.33;1.50;;;18.10;72.00;;;18.99;38.86;99339.22;11048328;26;20295;-62
2024/04/11 15:20:32;;;;;;;3.00;1.70;;;18.10;72.80;;;19.27;38.12;99332.75;11056841;26;20272;-62
2024/04/11 15:25:39;;;;;;;2.50;1.50;;;18.30;70.70;;;19.26;38.45;99334.47;11053415;26;20255;-63
2024/04/11 15:31:11;;;;;;;3.63;1.70;;;18.30;71.60;;;19.30;38.60;99338.97;11051267;26;20256;-63
2024/04/11 15:36:26;;;;;;;2.80;1.80;;;18.40;71.70;;;19.43;38.17;99335.25;11054488;26;20261;-64
2024/04/11 15:41:32;;;;;;;1.83;1.52;;;18.50;71.50;;;19.29;38.24;99339.78;11057370;26;20261;-63
2024/04/11 15:46:39;;;;;;;1.95;1.45;;;18.40;71.60;;;19.48;38.37;99336.31;11055496;26;20815;-64
2024/04/11 15:51:50;;;;;;;2.40;1.63;;;18.40;72.30;;;19.22;38.24;99327.34;11067793;26;20251;-64
2024/04/11 15:56:56;;;;;;;4.22;2.45;;;18.30;71.90;;;19.42;38.78;99317.91;11049893;26;20714;-62
2024/04/11 16:02:05;;;;;;;2.08;1.50;;;18.30;72.80;;;19.20;38.84;99323.81;11052818;26;20260;-61
2024/04/11 16:07:14;;;;;;;2.85;1.67;;;18.20;71.70;;;19.13;39.27;99329.53;11056186;26;20272;-61
2024/04/11 16:12:21;;;;;;;2.60;1.70;;;18.20;72.70;;;19.01;40.17;99331.53;11054068;26;20257;-61
2024/04/11 16:17:32;;;;;;;2.90;1.85;;;18.10;75.00;;;19.20;38.51;99333.28;11065450;26;20671;-62
2024/04/11 16:22:44;;;;;;;3.08;1.38;;;18.10;73.40;;;19.09;40.24;99333.69;11061852;26;20306;-63
2024/04/11 16:27:49;;;;;;;4.20;1.73;;;18.10;75.60;;;18.95;41.52;99336.44;11064132;26;20252;-63
2024/04/11 16:32:56;;;;;;;4.50;1.67;;;18.00;79.50;;;18.99;41.90;99333.16;11057089;26;20261;-63
2024/04/11 16:38:10;;;;;;;1.98;1.80;;;17.90;79.30;;;18.85;42.70;99328.19;11048133;26;20619;-63
2024/04/11 16:43:23;;;;;;;2.75;1.63;;;17.90;80.40;;;18.78;42.65;99327.84;11058828;26;20260;-62
2024/04/11 16:48:29;;;;;;;2.88;2.08;;;17.90;80.20;;;18.89;41.59;99327.56;11048430;26;20763;-61
2024/04/11 16:53:46;;;;;;;4.57;2.10;;;17.90;77.50;;;18.98;40.02;99331.41;11045988;26;20310;-62
2024/04/11 16:58:53;;;;;;;2.25;1.65;;;17.90;75.50;;;18.96;39.67;99338.22;11055731;26;20288;-61
2024/04/11 17:04:04;;;;;;;2.42;1.60;;;17.90;74.80;;;18.99;39.36;99338.34;11060459;26;20261;-63
2024/04/11 17:09:13;;;;;;;1.90;1.60;;;17.90;74.40;;;18.79;40.95;99340.88;11053828;26;20265;-62
2024/04/11 17:14:28;;;;;;;2.67;1.80;;;17.80;77.40;;;18.54;42.30;99351.72;11038803;26;20253;-62
2024/04/11 17:19:39;;;;;;;3.70;1.83;;;17.60;81.30;;;18.34;43.91;99352.41;11026208;26;20257;-61
2024/04/11 17:24:51;;;;;;;2.78;1.88;;;17.40;84.30;;;18.12;44.36;99353.91;11030394;26;20815;-62
2024/04/11 17:30:13;;;;;;;3.25;2.10;;;17.10;86.30;;;17.91;44.67;99363.13;11044011;26;20266;-63
2024/04/11 17:35:42;;;;;;;3.50;2.30;;;16.90;84.00;;;17.72;45.26;99371.59;11034022;26;20677;-63
2024/04/11 17:41:04;;;;;;;5.72;3.10;;;16.70;85.00;;;17.52;45.66;99379.19;11027339;26;21031;-61
2024/04/11 17:46:09;;;;;;;2.60;2.40;;;16.50;87.20;;;17.32;46.88;99384.97;11018902;26;20294;-63
2024/04/11 17:51:17;;;;;;;3.40;2.10;;;16.30;90.60;;;17.08;47.81;99381.88;11026075;26;20260;-62
2024/04/11 17:56:34;;;;;;;4.95;2.17;;;16.10;90.80;;;16.88;47.22;99401.44;11019092;26;20786;-61
2024/04/11 18:01:41;;;;;;;2.65;1.92;;;15.90;90.40;;;16.67;49.21;99406.22;11019814;26;20660;-63
2024/04/11 18:06:48;;;;;;;4.85;2.30;;;15.70;93.30;;;16.43;49.75;99410.84;11022612;26;20257;-61
2024/04/11 18:11:59;;;;;;;3.65;2.15;;;15.40;92.80;;;16.17;49.95;99407.63;11025686;26;20640;-63
2024/04/11 18:17:09;;;;;;;2.90;2.08;;;15.20;93.60;;;15.91;52.76;99412.88;11023457;26;20256;-62
2024/04/11 18:22:23;;;;;;;5.15;2.63;;;14.80;96.30;;;15.62;53.43;99424.81;11030654;26;20272;-63
2024/04/11 18:27:32;;;;;;;4.20;2.70;;;14.50;97.50;;;15.35;54.37;99441.13;11030279;26;20386;-61
2024/04/11 18:32:40;;;;;;;3.58;2.72;;;14.20;97.80;;;15.10;55.46;99443.00;11033239;26;20419;-61
2024/04/11 18:37:49;;;;;;;3.00;2.55;;;14.00;99.10;;;14.78;55.64;99448.63;11018969;26;20369;-62
2024/04/11 18:42:57;;;;;;;2.58;2.38;;;13.70;99.50;;;14.57;57.40;99445.53;11035228;26;20587;-61
2024/04/11 18:48:12;;;;;;;5.63;2.28;;;13.50;99.90;;;14.41;58.58;99441.00;11016688;26;20260;-60
2024/04/11 18:53:24;;;;;;;2.97;2.05;;;13.40;99.90;;;14.19;59.32;99448.03;11026469;26;20269;-60
2024/04/11 18:58:35;;;;;;;2.60;2.08;;;13.20;99.90;;;14.03;60.63;99447.78;11027968;26;20536;-58
2024/04/11 19:03:42;;;;;;;3.58;2.20;;;13.00;99.90;;;13.94;61.03;99445.47;11034528;26;20752;-61
2024/04/11 19:08:48;;;;;;;3.33;2.28;;;12.90;99.90;;;13.84;61.91;99454.22;11039606;26;20669;-62
2024/04/11 19:14:06;;;;;;;4.03;3.03;;;12.80;99.90;;;13.58;63.24;99447.25;11032812;26;20260;-61
2024/04/11 19:19:14;;;;;;;5.80;3.50;;;12.60;99.90;;;13.31;64.93;99460.72;11033163;26;20816;-63
2024/04/11 19:24:20;;;;;;;4.88;2.88;;;12.40;99.90;;;13.15;65.58;99463.78;11036406;26;20357;-61
2024/04/11 19:29:37;;;;;;;4.28;3.58;;;12.20;99.90;;;13.04;66.11;99453.63;11029983;26;20257;-63
2024/04/11 19:34:45;;;;;;;3.58;3.17;;;12.10;99.90;;;12.96;66.94;99456.41;11024021;26;20368;-63
2024/04/11 19:39:51;;;;;;;5.22;2.95;;;12.00;99.90;;;12.80;66.35;99462.09;11030343;26;20764;-61
2024/04/11 19:45:03;;;;;;;4.53;3.60;;;11.90;99.90;;;12.68;68.46;99469.78;11026575;26;21061;-61
2024/04/11 19:50:18;;;;;;;6.63;4.75;;;11.70;99.90;;;12.51;69.37;99468.50;11016892;26;20298;-61
2024/04/11 19:55:27;;;;;;;12.02;7.90;;;11.50;99.90;;;12.38;70.19;99470.91;11034791;26;20802;-62
2024/04/11 20:00:43;;;;;;;6.75;4.70;;;11.40;99.90;;;12.18;70.24;99466.81;11032914;26;20264;-62
2024/04/11 20:05:58;;;;;;;3.95;3.03;;;11.20;99.90;;;11.95;69.27;99459.94;11026125;26;20605;-63
2024/04/11 20:11:10;;;;;;;5.22;3.47;;;11.10;99.90;;;11.91;69.00;99466.50;11029890;26;20256;-62
2024/04/11 20:16:21;;;;;;;5.45;3.40;;;11.00;99.90;;;11.84;69.92;99463.28;11029827;26;20381;-63
2024/04/11 20:21:30;;;;;;;4.75;3.13;;;10.80;99.90;;;11.79;69.79;99469.72;11049938;26;20256;-61
2024/04/11 20:26:43;;;;;;;3.78;3.20;;;10.90;99.90;;;11.62;69.35;99484.69;11043209;26;20263;-63
2024/04/11 20:31:54;;;;;;;4.22;3.17;;;10.60;99.90;;;11.44;70.55;99485.75;11051120;26;20311;-62
2024/04/11 20:37:03;;;;;;;3.13;2.83;;;10.40;99.90;;;11.26;70.37;99485.19;11056180;26;20669;-62
2024/04/11 20:42:16;;;;;;;3.00;2.80;;;10.30;99.90;;;11.16;69.82;99473.31;11056576;26;20807;-62
2024/04/11 20:47:48;;;;;;;3.45;3.00;;;10.20;99.90;;;11.11;70.12;99474.63;11056550;26;20271;-62
2024/04/11 21:35:57;;;;;;;4.13;3.30;;;9.30;99.90;;;10.08;75.41;99500.94;11063785;26;20259;-63
2024/04/11 21:46:26;;;;;;;4.03;3.73;;;9.00;99.90;;;10.01;76.32;99534.38;11059631;26;20299;-62
2024/04/11 21:51:40;;;;;;;5.20;3.80;;;9.10;99.90;;;10.04;75.97;99532.97;11058121;26;20307;-63
2024/04/11 21:56:46;;;;;;;4.80;3.60;;;9.10;99.90;;;9.88;77.10;99538.44;11055110;26;20858;-62
2024/04/11 22:01:54;;;;;;;5.77;3.70;;;9.00;99.90;;;9.75;77.85;99542.34;11052659;26;20261;-63
2024/04/11 22:07:03;;;;;;;4.37;3.87;;;8.80;99.90;;;9.76;78.16;99537.38;11060449;26;20306;-63
2024/04/11 22:12:15;;;;;;;4.00;3.60;;;8.80;99.90;;;9.67;77.70;99528.88;11073174;26;20260;-63
2024/04/11 22:17:22;;;;;;;3.60;3.23;;;8.70;99.90;;;9.46;77.43;99528.78;11062501;26;20622;-63
2024/04/11 22:22:44;;;;;;;4.10;3.80;;;8.60;99.90;;;9.46;77.88;99528.78;11054617;26;20747;-62
2024/04/11 22:27:51;;;;;;;4.90;3.53;;;8.60;99.90;;;9.37;78.35;99533.09;11063892;26;20669;-63
2024/04/11 22:33:01;;;;;;;3.90;3.53;;;8.40;99.90;;;9.27;79.02;99540.72;11056407;26;20670;-63